MAS178 VCBI-WMKK
Flight info
| Callsign | MAS178 |
|---|---|
| Flight time | 3h 27m |
| Altitude | 37000 |
| Route | DUDAL1D VEVET P570 POPAK/N0459F390 P570 MABIX P756 ISVUR R461 PUGER PUGER1H |
| Aircraft | B38M/M-SDE1FGHILORVWXY/HB1 |
Departure
| Time | 2026-05-05 08:22 |
|---|---|
| Airport | Bandaranaike International Colombo Airport (VCBI) |
Arrival
| Time | 2026-05-05 11:50 |
|---|---|
| Airport | Kuala Lumpur International Airport (WMKK) |
| Time | Latitude | Longitude | Altitude | Speed | Heading |
|---|---|---|---|---|---|
| 2026-05-05 07:44 | 7.17653 | 79.88533 | 52 ft | 0 kts | 216° |
| 2026-05-05 08:10 | 7.17655 | 79.88535 | 52 ft | 2 kts | 216° |
| 2026-05-05 08:11 | 7.17667 | 79.88543 | 52 ft | 2 kts | 216° |
| 2026-05-05 08:11 | 7.17679 | 79.88552 | 53 ft | 2 kts | 216° |
| 2026-05-05 08:11 | 7.17691 | 79.88560 | 53 ft | 2 kts | 216° |
| 2026-05-05 08:11 | 7.17703 | 79.88570 | 53 ft | 2 kts | 216° |
| 2026-05-05 08:12 | 7.17716 | 79.88579 | 54 ft | 2 kts | 216° |
| 2026-05-05 08:12 | 7.17725 | 79.88590 | 54 ft | 2 kts | 249° |
| 2026-05-05 08:12 | 7.17728 | 79.88605 | 55 ft | 2 kts | 276° |
| 2026-05-05 08:12 | 7.17724 | 79.88619 | 55 ft | 1 kts | 302° |
| 2026-05-05 08:13 | 7.17720 | 79.88624 | 55 ft | 1 kts | 310° |
| 2026-05-05 08:13 | 7.17719 | 79.88626 | 55 ft | 0 kts | 307° |
| 2026-05-05 08:15 | 7.17719 | 79.88625 | 55 ft | 1 kts | 307° |
| 2026-05-05 08:15 | 7.17733 | 79.88608 | 55 ft | 5 kts | 308° |
| 2026-05-05 08:16 | 7.17762 | 79.88569 | 53 ft | 7 kts | 307° |
| 2026-05-05 08:16 | 7.17799 | 79.88520 | 51 ft | 9 kts | 307° |
| 2026-05-05 08:16 | 7.17846 | 79.88458 | 48 ft | 11 kts | 308° |
| 2026-05-05 08:16 | 7.17922 | 79.88458 | 45 ft | 12 kts | 36° |
| 2026-05-05 08:17 | 7.17992 | 79.88511 | 44 ft | 12 kts | 37° |
| 2026-05-05 08:17 | 7.18057 | 79.88561 | 44 ft | 11 kts | 37° |
| 2026-05-05 08:17 | 7.18115 | 79.88605 | 44 ft | 9 kts | 37° |
| 2026-05-05 08:17 | 7.18163 | 79.88642 | 45 ft | 7 kts | 37° |
| 2026-05-05 08:18 | 7.18211 | 79.88679 | 45 ft | 10 kts | 37° |
| 2026-05-05 08:18 | 7.18298 | 79.88745 | 45 ft | 19 kts | 37° |
| 2026-05-05 08:18 | 7.18405 | 79.88827 | 44 ft | 18 kts | 37° |
| 2026-05-05 08:18 | 7.18506 | 79.88905 | 44 ft | 17 kts | 37° |
| 2026-05-05 08:19 | 7.18608 | 79.88983 | 43 ft | 20 kts | 37° |
| 2026-05-05 08:19 | 7.18722 | 79.89071 | 42 ft | 20 kts | 38° |
| 2026-05-05 08:19 | 7.18833 | 79.89156 | 42 ft | 19 kts | 37° |
| 2026-05-05 08:19 | 7.18937 | 79.89235 | 42 ft | 17 kts | 37° |
| 2026-05-05 08:20 | 7.19031 | 79.89308 | 43 ft | 16 kts | 37° |
| 2026-05-05 08:20 | 7.19117 | 79.89374 | 43 ft | 14 kts | 37° |
| 2026-05-05 08:20 | 7.19199 | 79.89417 | 43 ft | 13 kts | 357° |
| 2026-05-05 08:20 | 7.19263 | 79.89362 | 43 ft | 12 kts | 307° |
| 2026-05-05 08:21 | 7.19297 | 79.89291 | 43 ft | 10 kts | 256° |
| 2026-05-05 08:21 | 7.19247 | 79.89243 | 43 ft | 11 kts | 216° |
| 2026-05-05 08:21 | 7.19056 | 79.89097 | 43 ft | 65 kts | 218° |
| 2026-05-05 08:21 | 7.18530 | 79.88698 | 44 ft | 120 kts | 215° |
| 2026-05-05 08:22 | 7.17750 | 79.88094 | 42 ft | 162 kts | 217° |
| 2026-05-05 08:22 | 7.16789 | 79.87360 | 309 ft | 177 kts | 219° |
| 2026-05-05 08:22 | 7.15789 | 79.86533 | 605 ft | 196 kts | 220° |
| 2026-05-05 08:22 | 7.14677 | 79.85721 | 1183 ft | 201 kts | 214° |
| 2026-05-05 08:23 | 7.13435 | 79.85108 | 1786 ft | 206 kts | 195° |
| 2026-05-05 08:23 | 7.11965 | 79.85278 | 2103 ft | 227 kts | 152° |
| 2026-05-05 08:23 | 7.10846 | 79.86465 | 2476 ft | 242 kts | 116° |
| 2026-05-05 08:23 | 7.10159 | 79.88058 | 2844 ft | 258 kts | 115° |
| 2026-05-05 08:24 | 7.09233 | 79.89631 | 3427 ft | 267 kts | 126° |
| 2026-05-05 08:24 | 7.08091 | 79.91129 | 4054 ft | 272 kts | 126° |
| 2026-05-05 08:24 | 7.07104 | 79.92751 | 4696 ft | 275 kts | 110° |
| 2026-05-05 08:24 | 7.06545 | 79.94603 | 5246 ft | 281 kts | 101° |
| 2026-05-05 08:25 | 7.06133 | 79.96507 | 5968 ft | 280 kts | 101° |
| 2026-05-05 08:25 | 7.05675 | 79.98389 | 6723 ft | 279 kts | 103° |
| 2026-05-05 08:25 | 7.05154 | 80.00276 | 7431 ft | 279 kts | 105° |
| 2026-05-05 08:25 | 7.04615 | 80.02126 | 8112 ft | 280 kts | 105° |
| 2026-05-05 08:26 | 7.04109 | 80.04021 | 8781 ft | 282 kts | 103° |
| 2026-05-05 08:26 | 7.03685 | 80.05945 | 9422 ft | 285 kts | 102° |
| 2026-05-05 08:26 | 7.03275 | 80.07900 | 9991 ft | 288 kts | 102° |
| 2026-05-05 08:26 | 7.02839 | 80.09911 | 10318 ft | 301 kts | 103° |
| 2026-05-05 08:27 | 7.02363 | 80.12028 | 10512 ft | 316 kts | 104° |
| 2026-05-05 08:27 | 7.01867 | 80.14206 | 10719 ft | 330 kts | 104° |
| 2026-05-05 08:27 | 7.01331 | 80.16544 | 10889 ft | 345 kts | 104° |
| 2026-05-05 08:27 | 7.00785 | 80.18919 | 11050 ft | 358 kts | 103° |
| 2026-05-05 08:28 | 7.00217 | 80.21390 | 11256 ft | 367 kts | 104° |
| 2026-05-05 08:28 | 6.99641 | 80.23907 | 11718 ft | 368 kts | 104° |
| 2026-05-05 08:28 | 6.99066 | 80.26418 | 12091 ft | 372 kts | 104° |
| 2026-05-05 08:28 | 6.98484 | 80.28960 | 12479 ft | 375 kts | 104° |
| 2026-05-05 08:29 | 6.97890 | 80.31543 | 12810 ft | 379 kts | 104° |
| 2026-05-05 08:29 | 6.97294 | 80.34142 | 13174 ft | 382 kts | 104° |
| 2026-05-05 08:29 | 6.96699 | 80.36752 | 13544 ft | 384 kts | 105° |
| 2026-05-05 08:30 | 6.95496 | 80.42004 | 14235 ft | 388 kts | 104° |
| 2026-05-05 08:30 | 6.95089 | 80.43778 | 14460 ft | 390 kts | 105° |
| 2026-05-05 08:30 | 6.94274 | 80.47325 | 14936 ft | 392 kts | 105° |
| 2026-05-05 08:30 | 6.93661 | 80.49989 | 15250 ft | 394 kts | 104° |
| 2026-05-05 08:31 | 6.93045 | 80.52676 | 15607 ft | 395 kts | 104° |
| 2026-05-05 08:31 | 6.92428 | 80.55364 | 15933 ft | 397 kts | 104° |
| 2026-05-05 08:31 | 6.91802 | 80.58088 | 16243 ft | 399 kts | 105° |
| 2026-05-05 08:31 | 6.91177 | 80.60809 | 16547 ft | 400 kts | 105° |
| 2026-05-05 08:32 | 6.90552 | 80.63533 | 16831 ft | 402 kts | 105° |
| 2026-05-05 08:32 | 6.89914 | 80.66325 | 17063 ft | 405 kts | 104° |
| 2026-05-05 08:32 | 6.89280 | 80.69095 | 17398 ft | 405 kts | 104° |
| 2026-05-05 08:32 | 6.88650 | 80.71847 | 17675 ft | 407 kts | 105° |
| 2026-05-05 08:33 | 6.88228 | 80.73683 | 17814 ft | 409 kts | 104° |
| 2026-05-05 08:33 | 6.87369 | 80.77409 | 18209 ft | 409 kts | 104° |
| 2026-05-05 08:33 | 6.86722 | 80.80209 | 18476 ft | 410 kts | 104° |
| 2026-05-05 08:33 | 6.86081 | 80.82993 | 18696 ft | 412 kts | 104° |
| 2026-05-05 08:34 | 6.85431 | 80.85815 | 18909 ft | 415 kts | 104° |
| 2026-05-05 08:34 | 6.84776 | 80.88648 | 19154 ft | 416 kts | 104° |
| 2026-05-05 08:34 | 6.84125 | 80.91469 | 19401 ft | 417 kts | 104° |
| 2026-05-05 08:34 | 6.83470 | 80.94311 | 19608 ft | 419 kts | 104° |
| 2026-05-05 08:35 | 6.82808 | 80.97183 | 19825 ft | 420 kts | 103° |
| 2026-05-05 08:35 | 6.82146 | 81.00063 | 20040 ft | 422 kts | 104° |
| 2026-05-05 08:35 | 6.81485 | 81.02937 | 20253 ft | 423 kts | 103° |
| 2026-05-05 08:35 | 6.80823 | 81.05809 | 20462 ft | 424 kts | 104° |
| 2026-05-05 08:36 | 6.80159 | 81.08692 | 20673 ft | 425 kts | 103° |
| 2026-05-05 08:36 | 6.79713 | 81.10627 | 20827 ft | 425 kts | 104° |
| 2026-05-05 08:36 | 6.78817 | 81.14505 | 21090 ft | 427 kts | 103° |
| 2026-05-05 08:36 | 6.78371 | 81.16435 | 21225 ft | 428 kts | 103° |
| 2026-05-05 08:37 | 6.77473 | 81.20328 | 21471 ft | 430 kts | 103° |
| 2026-05-05 08:37 | 6.77023 | 81.22276 | 21601 ft | 430 kts | 103° |
| 2026-05-05 08:37 | 6.76114 | 81.26201 | 21869 ft | 431 kts | 104° |
| 2026-05-05 08:37 | 6.75432 | 81.29150 | 22003 ft | 433 kts | 103° |
| 2026-05-05 08:38 | 6.74754 | 81.32087 | 22207 ft | 434 kts | 103° |
| 2026-05-05 08:38 | 6.74069 | 81.35054 | 22351 ft | 436 kts | 104° |
| 2026-05-05 08:38 | 6.73381 | 81.38030 | 22504 ft | 438 kts | 103° |
| 2026-05-05 08:38 | 6.72688 | 81.41012 | 22620 ft | 440 kts | 104° |
| 2026-05-05 08:39 | 6.71990 | 81.44012 | 22778 ft | 442 kts | 103° |
| 2026-05-05 08:39 | 6.71291 | 81.47018 | 22946 ft | 442 kts | 103° |
| 2026-05-05 08:39 | 6.70589 | 81.50047 | 23096 ft | 444 kts | 103° |
| 2026-05-05 08:39 | 6.69888 | 81.53073 | 23224 ft | 445 kts | 103° |
| 2026-05-05 08:40 | 6.69191 | 81.56084 | 23342 ft | 447 kts | 103° |
| 2026-05-05 08:40 | 6.68484 | 81.59139 | 23483 ft | 448 kts | 103° |
| 2026-05-05 08:40 | 6.68007 | 81.61205 | 23551 ft | 449 kts | 103° |
| 2026-05-05 08:40 | 6.67072 | 81.65250 | 23792 ft | 449 kts | 103° |
| 2026-05-05 08:41 | 6.66591 | 81.67322 | 23877 ft | 449 kts | 104° |
| 2026-05-05 08:41 | 6.65880 | 81.70387 | 23997 ft | 451 kts | 103° |
| 2026-05-05 08:41 | 6.65167 | 81.73455 | 24175 ft | 450 kts | 103° |
| 2026-05-05 08:41 | 6.64206 | 81.77585 | 24288 ft | 453 kts | 103° |
| 2026-05-05 08:42 | 6.63487 | 81.80670 | 24386 ft | 454 kts | 103° |
| 2026-05-05 08:42 | 6.62767 | 81.83762 | 24503 ft | 455 kts | 103° |
| 2026-05-05 08:42 | 6.62052 | 81.86827 | 24635 ft | 455 kts | 103° |
| 2026-05-05 08:42 | 6.61326 | 81.89945 | 24762 ft | 456 kts | 103° |
| 2026-05-05 08:43 | 6.60601 | 81.93059 | 24892 ft | 457 kts | 103° |
| 2026-05-05 08:43 | 6.59871 | 81.96193 | 25003 ft | 458 kts | 103° |
| 2026-05-05 08:43 | 6.59150 | 81.99287 | 25107 ft | 460 kts | 103° |
| 2026-05-05 08:43 | 6.58421 | 82.02420 | 25228 ft | 460 kts | 103° |
| 2026-05-05 08:44 | 6.57932 | 82.04518 | 25282 ft | 461 kts | 103° |
| 2026-05-05 08:44 | 6.57203 | 82.07646 | 25480 ft | 459 kts | 103° |
| 2026-05-05 08:44 | 6.56227 | 82.11831 | 25661 ft | 459 kts | 103° |
| 2026-05-05 08:44 | 6.55495 | 82.14970 | 25792 ft | 459 kts | 103° |
| 2026-05-05 08:45 | 6.54772 | 82.18066 | 25892 ft | 460 kts | 103° |
| 2026-05-05 08:45 | 6.54039 | 82.21210 | 26016 ft | 460 kts | 104° |
| 2026-05-05 08:45 | 6.53552 | 82.23296 | 26122 ft | 460 kts | 104° |
| 2026-05-05 08:45 | 6.52577 | 82.27467 | 26265 ft | 461 kts | 104° |
| 2026-05-05 08:46 | 6.52095 | 82.29526 | 26332 ft | 461 kts | 103° |
| 2026-05-05 08:46 | 6.51362 | 82.32664 | 26460 ft | 462 kts | 103° |
| 2026-05-05 08:46 | 6.50371 | 82.36903 | 26926 ft | 465 kts | 103° |
| 2026-05-05 08:46 | 6.49882 | 82.38995 | 27272 ft | 464 kts | 103° |
| 2026-05-05 08:47 | 6.49145 | 82.42155 | 27637 ft | 466 kts | 103° |
| 2026-05-05 08:47 | 6.48406 | 82.45320 | 28059 ft | 466 kts | 103° |
| 2026-05-05 08:47 | 6.47424 | 82.49524 | 28513 ft | 469 kts | 103° |
| 2026-05-05 08:47 | 6.46920 | 82.51679 | 28804 ft | 469 kts | 103° |
| 2026-05-05 08:48 | 6.45933 | 82.55903 | 29350 ft | 469 kts | 103° |
| 2026-05-05 08:48 | 6.45441 | 82.58006 | 29696 ft | 467 kts | 103° |
| 2026-05-05 08:48 | 6.44453 | 82.62229 | 30505 ft | 461 kts | 103° |
| 2026-05-05 08:48 | 6.43728 | 82.65318 | 31065 ft | 457 kts | 103° |
| 2026-05-05 08:49 | 6.43235 | 82.67419 | 31449 ft | 454 kts | 103° |
| 2026-05-05 08:49 | 6.42284 | 82.71480 | 32093 ft | 451 kts | 103° |
| 2026-05-05 08:49 | 6.41800 | 82.73545 | 32351 ft | 451 kts | 104° |
| 2026-05-05 08:49 | 6.40837 | 82.77657 | 32908 ft | 451 kts | 104° |
| 2026-05-05 08:50 | 6.40125 | 82.80688 | 33445 ft | 449 kts | 104° |
| 2026-05-05 08:50 | 6.39403 | 82.83769 | 33979 ft | 446 kts | 104° |
| 2026-05-05 08:50 | 6.38701 | 82.86764 | 34435 ft | 445 kts | 104° |
| 2026-05-05 08:50 | 6.37986 | 82.89810 | 34867 ft | 445 kts | 104° |
| 2026-05-05 08:51 | 6.37275 | 82.92841 | 35222 ft | 446 kts | 104° |
| 2026-05-05 08:51 | 6.36794 | 82.94881 | 35416 ft | 447 kts | 104° |
| 2026-05-05 08:51 | 6.36083 | 82.97905 | 35858 ft | 445 kts | 104° |
| 2026-05-05 08:51 | 6.35140 | 83.01925 | 36533 ft | 441 kts | 104° |
| 2026-05-05 08:52 | 6.34434 | 83.04932 | 36813 ft | 443 kts | 104° |
| 2026-05-05 08:52 | 6.33018 | 83.10953 | 36812 ft | 441 kts | 104° |
| 2026-05-05 08:53 | 6.31849 | 83.15919 | 36899 ft | 444 kts | 104° |
| 2026-05-05 08:53 | 6.31140 | 83.18927 | 37280 ft | 443 kts | 104° |
| 2026-05-05 08:53 | 6.30199 | 83.22923 | 37861 ft | 440 kts | 104° |
| 2026-05-05 08:53 | 6.29503 | 83.25881 | 38228 ft | 438 kts | 104° |
| 2026-05-05 08:54 | 6.29031 | 83.27891 | 38482 ft | 438 kts | 104° |
| 2026-05-05 08:54 | 6.28339 | 83.30836 | 38802 ft | 437 kts | 104° |
| 2026-05-05 08:54 | 6.27408 | 83.34798 | 38804 ft | 439 kts | 104° |
| 2026-05-05 08:55 | 6.26001 | 83.40771 | 38802 ft | 437 kts | 104° |
| 2026-05-05 08:55 | 6.24601 | 83.46689 | 38802 ft | 438 kts | 104° |
| 2026-05-05 08:56 | 6.23184 | 83.52676 | 38801 ft | 441 kts | 104° |
| 2026-05-05 08:56 | 6.21769 | 83.58660 | 38800 ft | 439 kts | 104° |
| 2026-05-05 08:57 | 6.20364 | 83.64608 | 38807 ft | 440 kts | 104° |
| 2026-05-05 08:57 | 6.18951 | 83.70589 | 38816 ft | 441 kts | 104° |
| 2026-05-05 08:58 | 6.17776 | 83.75553 | 38821 ft | 440 kts | 104° |
| 2026-05-05 08:58 | 6.16127 | 83.82523 | 38820 ft | 441 kts | 104° |
| 2026-05-05 08:59 | 6.14700 | 83.88548 | 38821 ft | 442 kts | 104° |
| 2026-05-05 08:59 | 6.13282 | 83.94534 | 38822 ft | 443 kts | 104° |
| 2026-05-05 09:00 | 6.11862 | 84.00519 | 38824 ft | 442 kts | 104° |
| 2026-05-05 09:00 | 6.10353 | 84.06551 | 38823 ft | 443 kts | 105° |
| 2026-05-05 09:01 | 6.09058 | 84.11520 | 38820 ft | 443 kts | 105° |
| 2026-05-05 09:01 | 6.07251 | 84.18478 | 38824 ft | 444 kts | 105° |
| 2026-05-05 09:02 | 6.05701 | 84.24490 | 38824 ft | 444 kts | 105° |
| 2026-05-05 09:02 | 6.04164 | 84.30463 | 38821 ft | 445 kts | 105° |
| 2026-05-05 09:03 | 6.02618 | 84.36473 | 38820 ft | 445 kts | 105° |
| 2026-05-05 09:03 | 6.01330 | 84.41477 | 38821 ft | 446 kts | 106° |
| 2026-05-05 09:04 | 5.99515 | 84.48518 | 38823 ft | 447 kts | 106° |
| 2026-05-05 09:04 | 5.97957 | 84.54571 | 38821 ft | 447 kts | 106° |
| 2026-05-05 09:05 | 5.96423 | 84.60618 | 38823 ft | 448 kts | 105° |
| 2026-05-05 09:05 | 5.94874 | 84.66695 | 38824 ft | 448 kts | 106° |
| 2026-05-05 09:06 | 5.93279 | 84.72812 | 38823 ft | 450 kts | 106° |
| 2026-05-05 09:06 | 5.91702 | 84.78885 | 38823 ft | 451 kts | 107° |
| 2026-05-05 09:07 | 5.90390 | 84.83940 | 38822 ft | 451 kts | 106° |
| 2026-05-05 09:07 | 5.88542 | 84.91079 | 38822 ft | 452 kts | 106° |
| 2026-05-05 09:08 | 5.87230 | 84.96152 | 38824 ft | 452 kts | 106° |
| 2026-05-05 09:08 | 5.85644 | 85.02285 | 38822 ft | 454 kts | 106° |
| 2026-05-05 09:09 | 5.84059 | 85.08417 | 38822 ft | 454 kts | 106° |
| 2026-05-05 09:09 | 5.82470 | 85.14562 | 38823 ft | 453 kts | 106° |
| 2026-05-05 09:10 | 5.80879 | 85.20707 | 38822 ft | 454 kts | 106° |
| 2026-05-05 09:10 | 5.79295 | 85.26820 | 38823 ft | 456 kts | 106° |
| 2026-05-05 09:11 | 5.77426 | 85.34042 | 38822 ft | 458 kts | 106° |
| 2026-05-05 09:11 | 5.75822 | 85.40231 | 38822 ft | 457 kts | 106° |
| 2026-05-05 09:12 | 5.74479 | 85.45402 | 38819 ft | 458 kts | 106° |
| 2026-05-05 09:12 | 5.72881 | 85.51563 | 38811 ft | 458 kts | 106° |
| 2026-05-05 09:13 | 5.71263 | 85.57792 | 38807 ft | 460 kts | 106° |
| 2026-05-05 09:13 | 5.69644 | 85.64021 | 38803 ft | 460 kts | 105° |
| 2026-05-05 09:14 | 5.68032 | 85.70230 | 38801 ft | 460 kts | 106° |
| 2026-05-05 09:14 | 5.66414 | 85.76453 | 38801 ft | 462 kts | 105° |
| 2026-05-05 09:15 | 5.64786 | 85.82705 | 38803 ft | 462 kts | 105° |
| 2026-05-05 09:15 | 5.63154 | 85.88967 | 38806 ft | 462 kts | 106° |
| 2026-05-05 09:16 | 5.61257 | 85.96245 | 38809 ft | 462 kts | 105° |
| 2026-05-05 09:16 | 5.59633 | 86.02484 | 38809 ft | 463 kts | 105° |
| 2026-05-05 09:17 | 5.58008 | 86.08724 | 38811 ft | 464 kts | 105° |
| 2026-05-05 09:17 | 5.56376 | 86.14984 | 38817 ft | 463 kts | 105° |
| 2026-05-05 09:18 | 5.55021 | 86.20180 | 38817 ft | 463 kts | 105° |
| 2026-05-05 09:18 | 5.53103 | 86.27535 | 38816 ft | 464 kts | 105° |
| 2026-05-05 09:19 | 5.51475 | 86.33773 | 38815 ft | 463 kts | 105° |
| 2026-05-05 09:19 | 5.49840 | 86.40028 | 38814 ft | 464 kts | 105° |
| 2026-05-05 09:20 | 5.48198 | 86.46307 | 38813 ft | 464 kts | 105° |
| 2026-05-05 09:20 | 5.46833 | 86.51520 | 38811 ft | 463 kts | 105° |
| 2026-05-05 09:21 | 5.44932 | 86.58791 | 38810 ft | 463 kts | 105° |
| 2026-05-05 09:21 | 5.43572 | 86.63996 | 38807 ft | 463 kts | 105° |
| 2026-05-05 09:22 | 5.41932 | 86.70265 | 38810 ft | 462 kts | 105° |
| 2026-05-05 09:22 | 5.40299 | 86.76499 | 38817 ft | 462 kts | 105° |
| 2026-05-05 09:23 | 5.38660 | 86.82756 | 38822 ft | 464 kts | 104° |
| 2026-05-05 09:23 | 5.37033 | 86.88962 | 38822 ft | 463 kts | 104° |
| 2026-05-05 09:24 | 5.35387 | 86.95239 | 38822 ft | 463 kts | 104° |
| 2026-05-05 09:24 | 5.33478 | 87.02521 | 38822 ft | 462 kts | 104° |
| 2026-05-05 09:25 | 5.32109 | 87.07736 | 38822 ft | 462 kts | 104° |
| 2026-05-05 09:25 | 5.30473 | 87.13969 | 38822 ft | 463 kts | 104° |
| 2026-05-05 09:26 | 5.28838 | 87.20192 | 38817 ft | 462 kts | 104° |
| 2026-05-05 09:26 | 5.26929 | 87.27455 | 38805 ft | 463 kts | 104° |
| 2026-05-05 09:27 | 5.25560 | 87.32669 | 38801 ft | 464 kts | 104° |
| 2026-05-05 09:27 | 5.23918 | 87.38911 | 38801 ft | 463 kts | 104° |
| 2026-05-05 09:28 | 5.22277 | 87.45145 | 38801 ft | 463 kts | 104° |
| 2026-05-05 09:28 | 5.20353 | 87.52456 | 38801 ft | 464 kts | 104° |
| 2026-05-05 09:29 | 5.18721 | 87.58661 | 38801 ft | 462 kts | 104° |
| 2026-05-05 09:29 | 5.17359 | 87.63841 | 38801 ft | 462 kts | 103° |
| 2026-05-05 09:30 | 5.15431 | 87.71155 | 38801 ft | 462 kts | 103° |
| 2026-05-05 09:30 | 5.13801 | 87.77316 | 38801 ft | 461 kts | 103° |
| 2026-05-05 09:31 | 5.12420 | 87.82553 | 38801 ft | 461 kts | 103° |
| 2026-05-05 09:31 | 5.10772 | 87.88802 | 38801 ft | 462 kts | 103° |
| 2026-05-05 09:32 | 5.09129 | 87.95023 | 38801 ft | 461 kts | 103° |
| 2026-05-05 09:32 | 5.07489 | 88.01230 | 38801 ft | 460 kts | 103° |
| 2026-05-05 09:33 | 5.05882 | 88.07394 | 38802 ft | 460 kts | 103° |
| 2026-05-05 09:33 | 5.04277 | 88.13594 | 38800 ft | 460 kts | 103° |
| 2026-05-05 09:34 | 5.02382 | 88.20912 | 38798 ft | 460 kts | 103° |
| 2026-05-05 09:34 | 5.00778 | 88.27098 | 38798 ft | 460 kts | 103° |
| 2026-05-05 09:35 | 4.99161 | 88.33320 | 38804 ft | 459 kts | 103° |
| 2026-05-05 09:35 | 4.97017 | 88.41573 | 38813 ft | 458 kts | 103° |
| 2026-05-05 09:36 | 4.95405 | 88.47758 | 38814 ft | 459 kts | 103° |
| 2026-05-05 09:36 | 4.93518 | 88.55011 | 38821 ft | 459 kts | 103° |
| 2026-05-05 09:37 | 4.92180 | 88.60162 | 38822 ft | 458 kts | 103° |
| 2026-05-05 09:37 | 4.90310 | 88.67370 | 38818 ft | 458 kts | 103° |
| 2026-05-05 09:38 | 4.88965 | 88.72527 | 38820 ft | 458 kts | 103° |
| 2026-05-05 09:38 | 4.87357 | 88.78687 | 38821 ft | 458 kts | 103° |
| 2026-05-05 09:39 | 4.85477 | 88.85899 | 38818 ft | 457 kts | 103° |
| 2026-05-05 09:39 | 4.83868 | 88.92069 | 38818 ft | 457 kts | 103° |
| 2026-05-05 09:40 | 4.82259 | 88.98236 | 38808 ft | 457 kts | 103° |
| 2026-05-05 09:40 | 4.80915 | 89.03389 | 38804 ft | 457 kts | 103° |
| 2026-05-05 09:41 | 4.79042 | 89.10564 | 38802 ft | 456 kts | 103° |
| 2026-05-05 09:41 | 4.77434 | 89.16715 | 38802 ft | 457 kts | 103° |
| 2026-05-05 09:42 | 4.76088 | 89.21862 | 38802 ft | 456 kts | 103° |
| 2026-05-05 09:42 | 4.74212 | 89.29031 | 38801 ft | 455 kts | 103° |
| 2026-05-05 09:43 | 4.72875 | 89.34145 | 38801 ft | 455 kts | 103° |
| 2026-05-05 09:43 | 4.71265 | 89.40299 | 38800 ft | 455 kts | 103° |
| 2026-05-05 09:44 | 4.69658 | 89.46437 | 38801 ft | 455 kts | 103° |
| 2026-05-05 09:44 | 4.67787 | 89.53587 | 38800 ft | 455 kts | 103° |
| 2026-05-05 09:45 | 4.66454 | 89.58685 | 38804 ft | 454 kts | 103° |
| 2026-05-05 09:45 | 4.64852 | 89.64799 | 38801 ft | 453 kts | 103° |
| 2026-05-05 09:46 | 4.63245 | 89.70921 | 38801 ft | 454 kts | 103° |
| 2026-05-05 09:46 | 4.61371 | 89.78067 | 38804 ft | 453 kts | 103° |
| 2026-05-05 09:47 | 4.60037 | 89.83151 | 38803 ft | 453 kts | 103° |
| 2026-05-05 09:47 | 4.58165 | 89.90276 | 38802 ft | 453 kts | 103° |
| 2026-05-05 09:48 | 4.56817 | 89.95417 | 38816 ft | 454 kts | 103° |
| 2026-05-05 09:48 | 4.55216 | 90.01512 | 38818 ft | 453 kts | 103° |
| 2026-05-05 09:49 | 4.53348 | 90.08627 | 38820 ft | 452 kts | 103° |
| 2026-05-05 09:49 | 4.51743 | 90.14735 | 38819 ft | 452 kts | 103° |
| 2026-05-05 09:50 | 4.50413 | 90.19803 | 38821 ft | 452 kts | 103° |
| 2026-05-05 09:50 | 4.48809 | 90.25902 | 38819 ft | 453 kts | 103° |
| 2026-05-05 09:51 | 4.47202 | 90.32008 | 38822 ft | 452 kts | 103° |
| 2026-05-05 09:51 | 4.45598 | 90.38100 | 38821 ft | 451 kts | 103° |
| 2026-05-05 09:52 | 4.44001 | 90.44170 | 38813 ft | 451 kts | 103° |
| 2026-05-05 09:52 | 4.42132 | 90.51271 | 38810 ft | 451 kts | 103° |
| 2026-05-05 09:53 | 4.40797 | 90.56342 | 38806 ft | 451 kts | 103° |
| 2026-05-05 09:53 | 4.38929 | 90.63429 | 38802 ft | 450 kts | 103° |
| 2026-05-05 09:54 | 4.37592 | 90.68498 | 38800 ft | 451 kts | 103° |
| 2026-05-05 09:54 | 4.35731 | 90.75551 | 38800 ft | 449 kts | 103° |
| 2026-05-05 09:55 | 4.34139 | 90.81589 | 38799 ft | 450 kts | 103° |
| 2026-05-05 09:55 | 4.32543 | 90.87643 | 38798 ft | 449 kts | 103° |
| 2026-05-05 09:56 | 4.30947 | 90.93685 | 38799 ft | 448 kts | 103° |
| 2026-05-05 09:56 | 4.29622 | 90.98694 | 38802 ft | 448 kts | 103° |
| 2026-05-05 09:57 | 4.28026 | 91.04728 | 38801 ft | 448 kts | 103° |
| 2026-05-05 09:57 | 4.26431 | 91.10770 | 38802 ft | 448 kts | 103° |
| 2026-05-05 09:58 | 4.24846 | 91.16769 | 38803 ft | 448 kts | 103° |
| 2026-05-05 09:58 | 4.23250 | 91.22803 | 38801 ft | 448 kts | 103° |
| 2026-05-05 09:59 | 4.21652 | 91.28841 | 38801 ft | 448 kts | 103° |
| 2026-05-05 09:59 | 4.20067 | 91.34837 | 38803 ft | 448 kts | 103° |
| 2026-05-05 10:00 | 4.18205 | 91.41872 | 38800 ft | 448 kts | 103° |
| 2026-05-05 10:00 | 4.16606 | 91.47903 | 38801 ft | 448 kts | 103° |
| 2026-05-05 10:01 | 4.15272 | 91.52941 | 38805 ft | 448 kts | 103° |
| 2026-05-05 10:01 | 4.13670 | 91.58984 | 38803 ft | 448 kts | 103° |
| 2026-05-05 10:02 | 4.12074 | 91.65005 | 38809 ft | 448 kts | 104° |
| 2026-05-05 10:02 | 4.10480 | 91.71020 | 38811 ft | 448 kts | 104° |
| 2026-05-05 10:03 | 4.08885 | 91.77039 | 38818 ft | 447 kts | 104° |
| 2026-05-05 10:03 | 4.07280 | 91.83086 | 38822 ft | 447 kts | 103° |
| 2026-05-05 10:04 | 4.06278 | 91.89181 | 38822 ft | 447 kts | 93° |
| 2026-05-05 10:04 | 4.05942 | 91.95400 | 38821 ft | 447 kts | 91° |
| 2026-05-05 10:05 | 4.05662 | 92.01612 | 38810 ft | 447 kts | 92° |
| 2026-05-05 10:05 | 4.05235 | 92.08813 | 38802 ft | 446 kts | 93° |
| 2026-05-05 10:06 | 4.04807 | 92.14991 | 38801 ft | 444 kts | 93° |
| 2026-05-05 10:06 | 4.04430 | 92.20153 | 38801 ft | 443 kts | 93° |
| 2026-05-05 10:07 | 4.03894 | 92.27361 | 38801 ft | 445 kts | 93° |
| 2026-05-05 10:07 | 4.03508 | 92.32505 | 38801 ft | 446 kts | 93° |
| 2026-05-05 10:08 | 4.03043 | 92.38698 | 38802 ft | 445 kts | 93° |
| 2026-05-05 10:08 | 4.02578 | 92.44884 | 38801 ft | 445 kts | 93° |
| 2026-05-05 10:09 | 4.02114 | 92.51051 | 38802 ft | 444 kts | 93° |
| 2026-05-05 10:09 | 4.01650 | 92.57207 | 38801 ft | 442 kts | 93° |
| 2026-05-05 10:10 | 4.01186 | 92.63345 | 38802 ft | 443 kts | 93° |
| 2026-05-05 10:10 | 4.00718 | 92.69547 | 38801 ft | 443 kts | 93° |
| 2026-05-05 10:11 | 4.00253 | 92.75702 | 38801 ft | 443 kts | 93° |
| 2026-05-05 10:11 | 3.99790 | 92.81832 | 38801 ft | 443 kts | 92° |
| 2026-05-05 10:12 | 3.99327 | 92.87965 | 38801 ft | 443 kts | 92° |
| 2026-05-05 10:12 | 3.98860 | 92.94133 | 38801 ft | 443 kts | 92° |
| 2026-05-05 10:13 | 3.98315 | 93.01297 | 38801 ft | 441 kts | 92° |
| 2026-05-05 10:13 | 3.97849 | 93.07424 | 38801 ft | 440 kts | 92° |
| 2026-05-05 10:14 | 3.97463 | 93.12510 | 38801 ft | 442 kts | 92° |
| 2026-05-05 10:14 | 3.96917 | 93.19669 | 38801 ft | 442 kts | 92° |
| 2026-05-05 10:15 | 3.96449 | 93.25819 | 38801 ft | 443 kts | 92° |
| 2026-05-05 10:15 | 3.96059 | 93.30927 | 38801 ft | 443 kts | 92° |
| 2026-05-05 10:16 | 3.95512 | 93.38087 | 38801 ft | 441 kts | 92° |
| 2026-05-05 10:16 | 3.95121 | 93.43201 | 38804 ft | 442 kts | 92° |
| 2026-05-05 10:17 | 3.94653 | 93.49336 | 38813 ft | 442 kts | 92° |
| 2026-05-05 10:17 | 3.94184 | 93.55474 | 38819 ft | 443 kts | 92° |
| 2026-05-05 10:18 | 3.93715 | 93.61589 | 38814 ft | 443 kts | 92° |
| 2026-05-05 10:18 | 3.93242 | 93.67739 | 38808 ft | 443 kts | 92° |
| 2026-05-05 10:19 | 3.92771 | 93.73884 | 38803 ft | 442 kts | 92° |
| 2026-05-05 10:19 | 3.92300 | 93.80014 | 38801 ft | 442 kts | 92° |
| 2026-05-05 10:20 | 3.91829 | 93.86133 | 38801 ft | 442 kts | 92° |
| 2026-05-05 10:20 | 3.91355 | 93.92300 | 38801 ft | 442 kts | 92° |
| 2026-05-05 10:21 | 3.90806 | 93.99448 | 38800 ft | 443 kts | 92° |
| 2026-05-05 10:21 | 3.90408 | 94.04601 | 38801 ft | 444 kts | 92° |
| 2026-05-05 10:22 | 3.89936 | 94.10725 | 38801 ft | 442 kts | 92° |
| 2026-05-05 10:22 | 3.89464 | 94.16849 | 38802 ft | 441 kts | 92° |
| 2026-05-05 10:23 | 3.88989 | 94.22976 | 38801 ft | 440 kts | 92° |
| 2026-05-05 10:23 | 3.88518 | 94.29076 | 38801 ft | 440 kts | 92° |
| 2026-05-05 10:24 | 3.88042 | 94.35214 | 38801 ft | 440 kts | 92° |
| 2026-05-05 10:24 | 3.87488 | 94.42351 | 38801 ft | 441 kts | 92° |
| 2026-05-05 10:25 | 3.87096 | 94.47420 | 38801 ft | 441 kts | 92° |
| 2026-05-05 10:25 | 3.86621 | 94.53536 | 38801 ft | 441 kts | 92° |
| 2026-05-05 10:26 | 3.86144 | 94.59655 | 38801 ft | 442 kts | 92° |
| 2026-05-05 10:26 | 3.85664 | 94.65798 | 38801 ft | 442 kts | 92° |
| 2026-05-05 10:27 | 3.85185 | 94.71951 | 38801 ft | 441 kts | 93° |
| 2026-05-05 10:27 | 3.84711 | 94.78035 | 38804 ft | 440 kts | 92° |
| 2026-05-05 10:28 | 3.84229 | 94.84199 | 38813 ft | 441 kts | 92° |
| 2026-05-05 10:28 | 3.83749 | 94.90333 | 38820 ft | 441 kts | 92° |
| 2026-05-05 10:29 | 3.83270 | 94.96465 | 38820 ft | 442 kts | 92° |
| 2026-05-05 10:29 | 3.82791 | 95.02593 | 38819 ft | 442 kts | 92° |
| 2026-05-05 10:30 | 3.82230 | 95.09729 | 38820 ft | 441 kts | 92° |
| 2026-05-05 10:30 | 3.81829 | 95.14836 | 38819 ft | 441 kts | 92° |
| 2026-05-05 10:31 | 3.81348 | 95.20952 | 38818 ft | 441 kts | 93° |
| 2026-05-05 10:31 | 3.80867 | 95.27075 | 38818 ft | 441 kts | 93° |
| 2026-05-05 10:32 | 3.80306 | 95.34214 | 38815 ft | 442 kts | 92° |
| 2026-05-05 10:32 | 3.79903 | 95.39354 | 38810 ft | 442 kts | 93° |
| 2026-05-05 10:33 | 3.79421 | 95.45480 | 38805 ft | 442 kts | 92° |
| 2026-05-05 10:33 | 3.78937 | 95.51626 | 38801 ft | 443 kts | 92° |
| 2026-05-05 10:34 | 3.78451 | 95.57754 | 38801 ft | 442 kts | 93° |
| 2026-05-05 10:34 | 3.77965 | 95.63891 | 38801 ft | 443 kts | 93° |
| 2026-05-05 10:35 | 3.77477 | 95.70064 | 38801 ft | 442 kts | 93° |
| 2026-05-05 10:35 | 3.76989 | 95.76239 | 38801 ft | 443 kts | 93° |
| 2026-05-05 10:36 | 3.76421 | 95.83424 | 38801 ft | 443 kts | 93° |
| 2026-05-05 10:36 | 3.75934 | 95.89565 | 38801 ft | 442 kts | 93° |
| 2026-05-05 10:37 | 3.75449 | 95.95667 | 38801 ft | 443 kts | 93° |
| 2026-05-05 10:37 | 3.75042 | 96.00792 | 38805 ft | 443 kts | 93° |
| 2026-05-05 10:38 | 3.74469 | 96.07987 | 38807 ft | 443 kts | 93° |
| 2026-05-05 10:38 | 3.74060 | 96.13130 | 38815 ft | 443 kts | 93° |
| 2026-05-05 10:39 | 3.73570 | 96.19288 | 38806 ft | 443 kts | 93° |
| 2026-05-05 10:39 | 3.73082 | 96.25417 | 38810 ft | 443 kts | 93° |
| 2026-05-05 10:40 | 3.72592 | 96.31561 | 38821 ft | 443 kts | 93° |
| 2026-05-05 10:40 | 3.72100 | 96.37714 | 38818 ft | 443 kts | 93° |
| 2026-05-05 10:41 | 3.71530 | 96.44853 | 38822 ft | 442 kts | 93° |
| 2026-05-05 10:41 | 3.71122 | 96.49953 | 38827 ft | 442 kts | 93° |
| 2026-05-05 10:42 | 3.70383 | 96.59190 | 38843 ft | 444 kts | 93° |
| 2026-05-05 10:43 | 3.69808 | 96.66330 | 38851 ft | 444 kts | 93° |
| 2026-05-05 10:43 | 3.69394 | 96.71489 | 38849 ft | 442 kts | 93° |
| 2026-05-05 10:44 | 3.68903 | 96.77600 | 38857 ft | 443 kts | 93° |
| 2026-05-05 10:44 | 3.68411 | 96.83733 | 38906 ft | 444 kts | 93° |
| 2026-05-05 10:45 | 3.67914 | 96.89900 | 38949 ft | 444 kts | 93° |
| 2026-05-05 10:45 | 3.67339 | 96.97062 | 38966 ft | 443 kts | 93° |
| 2026-05-05 10:46 | 3.66929 | 97.02152 | 38999 ft | 443 kts | 93° |
| 2026-05-05 10:46 | 3.66435 | 97.08289 | 39050 ft | 443 kts | 93° |
| 2026-05-05 10:47 | 3.65935 | 97.14468 | 39093 ft | 442 kts | 93° |
| 2026-05-05 10:47 | 3.65441 | 97.20592 | 39143 ft | 444 kts | 93° |
| 2026-05-05 10:48 | 3.64944 | 97.26747 | 39200 ft | 444 kts | 93° |
| 2026-05-05 10:48 | 3.64445 | 97.32915 | 39183 ft | 443 kts | 93° |
| 2026-05-05 10:49 | 3.63949 | 97.39024 | 39174 ft | 443 kts | 93° |
| 2026-05-05 10:49 | 3.63366 | 97.46203 | 39160 ft | 442 kts | 93° |
| 2026-05-05 10:50 | 3.62948 | 97.51358 | 39158 ft | 443 kts | 93° |
| 2026-05-05 10:50 | 3.62365 | 97.58515 | 39128 ft | 444 kts | 93° |
| 2026-05-05 10:51 | 3.61948 | 97.63647 | 39107 ft | 444 kts | 93° |
| 2026-05-05 10:51 | 3.61444 | 97.69840 | 39072 ft | 444 kts | 93° |
| 2026-05-05 10:52 | 3.60859 | 97.77024 | 39039 ft | 444 kts | 93° |
| 2026-05-05 10:52 | 3.60356 | 97.83196 | 39010 ft | 444 kts | 93° |
| 2026-05-05 10:53 | 3.59938 | 97.88322 | 38992 ft | 444 kts | 93° |
| 2026-05-05 10:53 | 3.59434 | 97.94488 | 38976 ft | 445 kts | 93° |
| 2026-05-05 10:54 | 3.58929 | 98.00652 | 38964 ft | 445 kts | 93° |
| 2026-05-05 10:54 | 3.58424 | 98.06839 | 38941 ft | 445 kts | 93° |
| 2026-05-05 10:55 | 3.57917 | 98.13036 | 38905 ft | 445 kts | 93° |
| 2026-05-05 10:55 | 3.57414 | 98.19211 | 38872 ft | 445 kts | 93° |
| 2026-05-05 10:56 | 3.56908 | 98.25370 | 38840 ft | 446 kts | 93° |
| 2026-05-05 10:56 | 3.56400 | 98.31548 | 38840 ft | 445 kts | 93° |
| 2026-05-05 10:57 | 3.55890 | 98.37770 | 38839 ft | 445 kts | 93° |
| 2026-05-05 10:57 | 3.55296 | 98.45002 | 38836 ft | 447 kts | 93° |
| 2026-05-05 10:58 | 3.54785 | 98.51198 | 38836 ft | 446 kts | 93° |
| 2026-05-05 10:58 | 3.54364 | 98.56311 | 38832 ft | 445 kts | 93° |
| 2026-05-05 10:59 | 3.53854 | 98.62502 | 38830 ft | 445 kts | 93° |
| 2026-05-05 10:59 | 3.53263 | 98.69681 | 38825 ft | 446 kts | 94° |
| 2026-05-05 11:00 | 3.52837 | 98.74845 | 38818 ft | 447 kts | 93° |
| 2026-05-05 11:00 | 3.52326 | 98.81035 | 38815 ft | 446 kts | 93° |
| 2026-05-05 11:01 | 3.51817 | 98.87202 | 38814 ft | 446 kts | 94° |
| 2026-05-05 11:01 | 3.51222 | 98.94388 | 38817 ft | 445 kts | 94° |
| 2026-05-05 11:02 | 3.50796 | 98.99532 | 38819 ft | 447 kts | 94° |
| 2026-05-05 11:02 | 3.50284 | 99.05711 | 38818 ft | 448 kts | 94° |
| 2026-05-05 11:03 | 3.49769 | 99.11940 | 38818 ft | 447 kts | 94° |
| 2026-05-05 11:03 | 3.49257 | 99.18115 | 38819 ft | 448 kts | 94° |
| 2026-05-05 11:04 | 3.48656 | 99.25337 | 38816 ft | 447 kts | 94° |
| 2026-05-05 11:04 | 3.48228 | 99.30496 | 38817 ft | 447 kts | 94° |
| 2026-05-05 11:05 | 3.47627 | 99.37703 | 38811 ft | 446 kts | 94° |
| 2026-05-05 11:05 | 3.47109 | 99.43894 | 38805 ft | 446 kts | 94° |
| 2026-05-05 11:06 | 3.46675 | 99.49094 | 38804 ft | 448 kts | 94° |
| 2026-05-05 11:06 | 3.46073 | 99.56338 | 38795 ft | 447 kts | 94° |
| 2026-05-05 11:07 | 3.45646 | 99.61481 | 38795 ft | 447 kts | 94° |
| 2026-05-05 11:07 | 3.45127 | 99.67690 | 38799 ft | 447 kts | 94° |
| 2026-05-05 11:08 | 3.44536 | 99.74748 | 38803 ft | 446 kts | 94° |
| 2026-05-05 11:08 | 3.44016 | 99.80956 | 38805 ft | 446 kts | 94° |
| 2026-05-05 11:09 | 3.43499 | 99.87144 | 38806 ft | 446 kts | 94° |
| 2026-05-05 11:09 | 3.42981 | 99.93317 | 38563 ft | 438 kts | 94° |
| 2026-05-05 11:09 | 3.42731 | 99.96296 | 38142 ft | 432 kts | 94° |
| 2026-05-05 11:10 | 3.42479 | 99.99301 | 37629 ft | 433 kts | 94° |
| 2026-05-05 11:10 | 3.42227 | 100.02294 | 37036 ft | 433 kts | 94° |
| 2026-05-05 11:10 | 3.42060 | 100.04282 | 36623 ft | 433 kts | 94° |
| 2026-05-05 11:10 | 3.41809 | 100.07270 | 36007 ft | 434 kts | 94° |
| 2026-05-05 11:11 | 3.41464 | 100.11397 | 35099 ft | 458 kts | 94° |
| 2026-05-05 11:11 | 3.41288 | 100.13518 | 34592 ft | 468 kts | 94° |
| 2026-05-05 11:11 | 3.40921 | 100.17885 | 33523 ft | 478 kts | 94° |
| 2026-05-05 11:11 | 3.40642 | 100.21184 | 32660 ft | 469 kts | 94° |
| 2026-05-05 11:12 | 3.40456 | 100.23292 | 32162 ft | 461 kts | 95° |
| 2026-05-05 11:12 | 3.40010 | 100.26434 | 31420 ft | 456 kts | 101° |
| 2026-05-05 11:12 | 3.38688 | 100.30426 | 30857 ft | 451 kts | 116° |
| 2026-05-05 11:13 | 3.35295 | 100.35772 | 30803 ft | 464 kts | 124° |
| 2026-05-05 11:13 | 3.32080 | 100.40153 | 30800 ft | 466 kts | 126° |
| 2026-05-05 11:14 | 3.28208 | 100.45323 | 30801 ft | 465 kts | 126° |
| 2026-05-05 11:14 | 3.23705 | 100.51373 | 30801 ft | 464 kts | 125° |
| 2026-05-05 11:15 | 3.19856 | 100.56587 | 30801 ft | 465 kts | 126° |
| 2026-05-05 11:15 | 3.16025 | 100.61794 | 30801 ft | 464 kts | 125° |
| 2026-05-05 11:16 | 3.12219 | 100.66980 | 30801 ft | 464 kts | 126° |
| 2026-05-05 11:16 | 3.08386 | 100.72192 | 30801 ft | 463 kts | 126° |
| 2026-05-05 11:17 | 3.04545 | 100.77364 | 30629 ft | 461 kts | 126° |
| 2026-05-05 11:17 | 3.03283 | 100.79057 | 30213 ft | 460 kts | 126° |
| 2026-05-05 11:17 | 3.01381 | 100.81609 | 29507 ft | 457 kts | 126° |
| 2026-05-05 11:18 | 3.01339 | 100.81666 | 29492 ft | 456 kts | 126° |
| 2026-05-05 11:22 | 3.00290 | 100.83073 | 29125 ft | 454 kts | 126° |
| 2026-05-05 11:22 | 2.98419 | 100.85585 | 28470 ft | 450 kts | 126° |
| 2026-05-05 11:23 | 2.96086 | 100.89017 | 27633 ft | 443 kts | 120° |
| 2026-05-05 11:23 | 2.95080 | 100.90790 | 27203 ft | 440 kts | 117° |
| 2026-05-05 11:23 | 2.93300 | 100.94408 | 26352 ft | 434 kts | 114° |
| 2026-05-05 11:23 | 2.92467 | 100.96254 | 25926 ft | 432 kts | 113° |
| 2026-05-05 11:24 | 2.91275 | 100.98988 | 25293 ft | 428 kts | 112° |
| 2026-05-05 11:24 | 2.90109 | 101.01719 | 24668 ft | 423 kts | 112° |
| 2026-05-05 11:24 | 2.88975 | 101.04388 | 24043 ft | 419 kts | 112° |
| 2026-05-05 11:24 | 2.87823 | 101.07096 | 23403 ft | 415 kts | 112° |
| 2026-05-05 11:25 | 2.86325 | 101.10605 | 22583 ft | 410 kts | 112° |
| 2026-05-05 11:25 | 2.85206 | 101.13213 | 21986 ft | 405 kts | 112° |
| 2026-05-05 11:25 | 2.84451 | 101.14969 | 21686 ft | 399 kts | 112° |
| 2026-05-05 11:25 | 2.83366 | 101.17487 | 21447 ft | 386 kts | 112° |
| 2026-05-05 11:26 | 2.82328 | 101.19892 | 21319 ft | 371 kts | 112° |
| 2026-05-05 11:26 | 2.81309 | 101.22201 | 21175 ft | 358 kts | 114° |
| 2026-05-05 11:26 | 2.80178 | 101.24387 | 20950 ft | 348 kts | 121° |
| 2026-05-05 11:26 | 2.78756 | 101.26328 | 20528 ft | 346 kts | 129° |
| 2026-05-05 11:27 | 2.77113 | 101.28105 | 20096 ft | 344 kts | 136° |
| 2026-05-05 11:27 | 2.75148 | 101.29485 | 19685 ft | 344 kts | 152° |
| 2026-05-05 11:27 | 2.72896 | 101.30298 | 19275 ft | 343 kts | 164° |
| 2026-05-05 11:27 | 2.70523 | 101.30705 | 18864 ft | 342 kts | 172° |
| 2026-05-05 11:28 | 2.68158 | 101.30667 | 18460 ft | 343 kts | 186° |
| 2026-05-05 11:28 | 2.65042 | 101.29967 | 17914 ft | 339 kts | 188° |
| 2026-05-05 11:28 | 2.62717 | 101.29726 | 17524 ft | 333 kts | 176° |
| 2026-05-05 11:28 | 2.60432 | 101.29856 | 17136 ft | 328 kts | 171° |
| 2026-05-05 11:29 | 2.58914 | 101.30042 | 16876 ft | 325 kts | 167° |
| 2026-05-05 11:29 | 2.56056 | 101.30840 | 16379 ft | 317 kts | 156° |
| 2026-05-05 11:29 | 2.54026 | 101.31690 | 16014 ft | 313 kts | 153° |
| 2026-05-05 11:29 | 2.52711 | 101.32288 | 15769 ft | 311 kts | 153° |
| 2026-05-05 11:30 | 2.50163 | 101.33612 | 15280 ft | 306 kts | 144° |
| 2026-05-05 11:30 | 2.49009 | 101.34458 | 15035 ft | 302 kts | 138° |
| 2026-05-05 11:30 | 2.47452 | 101.35833 | 14696 ft | 298 kts | 134° |
| 2026-05-05 11:30 | 2.45958 | 101.37277 | 14341 ft | 295 kts | 134° |
| 2026-05-05 11:31 | 2.44141 | 101.39298 | 13868 ft | 291 kts | 124° |
| 2026-05-05 11:31 | 2.43415 | 101.40415 | 13640 ft | 289 kts | 118° |
| 2026-05-05 11:31 | 2.42180 | 101.42770 | 13180 ft | 284 kts | 115° |
| 2026-05-05 11:31 | 2.41341 | 101.44527 | 12846 ft | 282 kts | 114° |
| 2026-05-05 11:32 | 2.40550 | 101.46320 | 12502 ft | 279 kts | 108° |
| 2026-05-05 11:32 | 2.40102 | 101.48207 | 12176 ft | 276 kts | 97° |
| 2026-05-05 11:32 | 2.40046 | 101.49468 | 11938 ft | 274 kts | 83° |
| 2026-05-05 11:32 | 2.40941 | 101.51781 | 11505 ft | 271 kts | 53° |
| 2026-05-05 11:33 | 2.41810 | 101.52702 | 11299 ft | 269 kts | 40° |
| 2026-05-05 11:33 | 2.44008 | 101.53863 | 10853 ft | 269 kts | 17° |
| 2026-05-05 11:33 | 2.45239 | 101.54102 | 10630 ft | 269 kts | 6° |
| 2026-05-05 11:33 | 2.47722 | 101.53915 | 10345 ft | 263 kts | 347° |
| 2026-05-05 11:34 | 2.48871 | 101.53535 | 10197 ft | 264 kts | 339° |
| 2026-05-05 11:34 | 2.51116 | 101.52387 | 9814 ft | 269 kts | 341° |
| 2026-05-05 11:34 | 2.52309 | 101.52119 | 9611 ft | 263 kts | 0° |
| 2026-05-05 11:34 | 2.54651 | 101.52641 | 9211 ft | 257 kts | 19° |
| 2026-05-05 11:35 | 2.55814 | 101.52994 | 9021 ft | 258 kts | 15° |
| 2026-05-05 11:35 | 2.58179 | 101.53329 | 8615 ft | 256 kts | 7° |
| 2026-05-05 11:35 | 2.59940 | 101.53548 | 8312 ft | 254 kts | 13° |
| 2026-05-05 11:35 | 2.61054 | 101.53919 | 8118 ft | 253 kts | 30° |
| 2026-05-05 11:36 | 2.62555 | 101.55636 | 8005 ft | 249 kts | 66° |
| 2026-05-05 11:36 | 2.62906 | 101.56751 | 8005 ft | 253 kts | 77° |
| 2026-05-05 11:36 | 2.63150 | 101.59096 | 8000 ft | 254 kts | 87° |
| 2026-05-05 11:36 | 2.63175 | 101.60268 | 7996 ft | 254 kts | 88° |
| 2026-05-05 11:37 | 2.63194 | 101.62032 | 7993 ft | 253 kts | 89° |
| 2026-05-05 11:37 | 2.63044 | 101.63800 | 7993 ft | 256 kts | 101° |
| 2026-05-05 11:37 | 2.61872 | 101.65841 | 7916 ft | 261 kts | 138° |
| 2026-05-05 11:37 | 2.60386 | 101.66874 | 7801 ft | 261 kts | 146° |
| 2026-05-05 11:38 | 2.58815 | 101.67842 | 7591 ft | 261 kts | 146° |
| 2026-05-05 11:38 | 2.57295 | 101.68807 | 7353 ft | 259 kts | 146° |
| 2026-05-05 11:38 | 2.56282 | 101.69470 | 7194 ft | 258 kts | 144° |
| 2026-05-05 11:38 | 2.54300 | 101.70791 | 6882 ft | 257 kts | 144° |
| 2026-05-05 11:39 | 2.53312 | 101.71452 | 6726 ft | 256 kts | 144° |
| 2026-05-05 11:39 | 2.51322 | 101.72784 | 6407 ft | 254 kts | 144° |
| 2026-05-05 11:39 | 2.50338 | 101.73444 | 6246 ft | 252 kts | 144° |
| 2026-05-05 11:39 | 2.48437 | 101.74719 | 5931 ft | 244 kts | 143° |
| 2026-05-05 11:40 | 2.47042 | 101.75655 | 5682 ft | 238 kts | 143° |
| 2026-05-05 11:40 | 2.46130 | 101.76268 | 5520 ft | 231 kts | 143° |
| 2026-05-05 11:40 | 2.44394 | 101.77431 | 5219 ft | 215 kts | 144° |
| 2026-05-05 11:40 | 2.43261 | 101.78329 | 4979 ft | 203 kts | 131° |
| 2026-05-05 11:41 | 2.42695 | 101.79067 | 4819 ft | 197 kts | 118° |
| 2026-05-05 11:41 | 2.42199 | 101.80303 | 4597 ft | 189 kts | 100° |
| 2026-05-05 11:41 | 2.42107 | 101.81550 | 4505 ft | 172 kts | 83° |
| 2026-05-05 11:41 | 2.42720 | 101.82959 | 4426 ft | 170 kts | 39° |
| 2026-05-05 11:42 | 2.43423 | 101.83304 | 4350 ft | 171 kts | 11° |
| 2026-05-05 11:42 | 2.44607 | 101.83330 | 4281 ft | 169 kts | 0° |
| 2026-05-05 11:42 | 2.45798 | 101.83315 | 4255 ft | 169 kts | 1° |
| 2026-05-05 11:42 | 2.47374 | 101.83318 | 4218 ft | 169 kts | 1° |
| 2026-05-05 11:43 | 2.48580 | 101.83317 | 4157 ft | 169 kts | 1° |
| 2026-05-05 11:43 | 2.49768 | 101.83318 | 4067 ft | 168 kts | 1° |
| 2026-05-05 11:43 | 2.50936 | 101.83318 | 4048 ft | 169 kts | 1° |
| 2026-05-05 11:43 | 2.52123 | 101.83316 | 4049 ft | 171 kts | 1° |
| 2026-05-05 11:44 | 2.52926 | 101.83316 | 4047 ft | 170 kts | 1° |
| 2026-05-05 11:44 | 2.54514 | 101.83307 | 4046 ft | 171 kts | 0° |
| 2026-05-05 11:44 | 2.55713 | 101.83279 | 4048 ft | 169 kts | 359° |
| 2026-05-05 11:44 | 2.56859 | 101.83229 | 4053 ft | 165 kts | 357° |
| 2026-05-05 11:45 | 2.58010 | 101.83033 | 3900 ft | 168 kts | 344° |
| 2026-05-05 11:45 | 2.59073 | 101.82568 | 3640 ft | 165 kts | 333° |
| 2026-05-05 11:45 | 2.59739 | 101.82183 | 3498 ft | 162 kts | 330° |
| 2026-05-05 11:45 | 2.60993 | 101.81393 | 3233 ft | 160 kts | 329° |
| 2026-05-05 11:46 | 2.61921 | 101.80785 | 3003 ft | 157 kts | 328° |
| 2026-05-05 11:46 | 2.62538 | 101.80377 | 2868 ft | 158 kts | 328° |
| 2026-05-05 11:46 | 2.63764 | 101.79564 | 2583 ft | 157 kts | 327° |
| 2026-05-05 11:46 | 2.64367 | 101.79162 | 2447 ft | 158 kts | 327° |
| 2026-05-05 11:47 | 2.65580 | 101.78354 | 2177 ft | 156 kts | 327° |
| 2026-05-05 11:47 | 2.66456 | 101.77772 | 1956 ft | 147 kts | 327° |
| 2026-05-05 11:47 | 2.67297 | 101.77212 | 1784 ft | 145 kts | 327° |
| 2026-05-05 11:47 | 2.68142 | 101.76649 | 1593 ft | 145 kts | 327° |
| 2026-05-05 11:48 | 2.69689 | 101.75616 | 1252 ft | 145 kts | 327° |
| 2026-05-05 11:48 | 2.70539 | 101.75053 | 1064 ft | 145 kts | 327° |
| 2026-05-05 11:48 | 2.71093 | 101.74681 | 926 ft | 146 kts | 326° |
| 2026-05-05 11:49 | 2.72204 | 101.73945 | 711 ft | 141 kts | 327° |
| 2026-05-05 11:49 | 2.72762 | 101.73586 | 587 ft | 141 kts | 327° |
| 2026-05-05 11:49 | 2.73577 | 101.73045 | 408 ft | 142 kts | 326° |
| 2026-05-05 11:49 | 2.74414 | 101.72489 | 214 ft | 146 kts | 326° |
| 2026-05-05 11:50 | 2.75514 | 101.71753 | 76 ft | 124 kts | 326° |
| 2026-05-05 11:50 | 2.76071 | 101.71380 | 76 ft | 68 kts | 327° |
| 2026-05-05 11:50 | 2.76272 | 101.71249 | 76 ft | 40 kts | 326° |
| 2026-05-05 11:50 | 2.76409 | 101.71156 | 75 ft | 19 kts | 325° |
| 2026-05-05 11:51 | 2.76509 | 101.71056 | 76 ft | 21 kts | 304° |
| 2026-05-05 11:51 | 2.76574 | 101.70926 | 75 ft | 5 kts | 295° |
| 2026-05-05 11:51 | 2.76575 | 101.70921 | 75 ft | 0 kts | 293° |
| 2026-05-05 11:52 | 2.76578 | 101.70916 | 75 ft | 3 kts | 290° |
| 2026-05-05 11:52 | 2.76572 | 101.70865 | 75 ft | 13 kts | 230° |
| 2026-05-05 11:53 | 2.76483 | 101.70872 | 76 ft | 13 kts | 147° |
| 2026-05-05 11:53 | 2.76406 | 101.70924 | 75 ft | 14 kts | 146° |
| 2026-05-05 11:53 | 2.76308 | 101.70988 | 75 ft | 17 kts | 147° |
| 2026-05-05 11:53 | 2.76201 | 101.71027 | 76 ft | 15 kts | 171° |
| 2026-05-05 11:54 | 2.76130 | 101.71040 | 75 ft | 15 kts | 168° |
| 2026-05-05 11:54 | 2.76002 | 101.71085 | 76 ft | 13 kts | 149° |
| 2026-05-05 11:54 | 2.75922 | 101.71135 | 76 ft | 13 kts | 147° |
| 2026-05-05 11:54 | 2.75872 | 101.71168 | 75 ft | 12 kts | 146° |
| 2026-05-05 11:55 | 2.75766 | 101.71240 | 75 ft | 14 kts | 146° |
| 2026-05-05 11:55 | 2.75686 | 101.71293 | 75 ft | 13 kts | 146° |
| 2026-05-05 11:55 | 2.75631 | 101.71321 | 75 ft | 10 kts | 196° |
| 2026-05-05 11:55 | 2.75566 | 101.71240 | 75 ft | 15 kts | 237° |
| 2026-05-05 11:56 | 2.75544 | 101.71207 | 75 ft | 18 kts | 236° |